Aérodrome :
LOGIN :

S'inscrire | Disclaimer

   EN    FR    IT 

 










Légende :    VFR   VFR Marginal   IFR   IFR Intensif   IFR Très Intensif
Visi : 
Plafond : 
>= 8 km
>= 3000ft
5 à 8 km
1000 à 3000 ft
1500m à 5 km
500 à 1000 ft
800 à 1500m
200 à 500 ft
< 800m
< 200 ft
Symboles :   Orages  Brouillard  Fortes neiges  Fortes précipitations  Vent > 20 kt
SIGMETs :   Divers  Orages  Givrage  Turbulence  Onde Orograph.  Cendres Volcan.






- Altitude de l'aérodrome : 597 ft
- Code IATA : PDV


LBPD - Plovdiv

DERNIER METAR :
  • 221630Z AUTO 13006KT 9999 OVC053 07/M01 Q1029 NOSIG

METARs EXPIRÉS :
  • 221600Z AUTO 15007KT 9999 BKN055 OVC077 08/M01 Q1028 NOSIG
  • 221530Z AUTO 17006KT 9999 OVC057 07/M00 Q1028 NOSIG
  • 221500Z AUTO 08007KT 9999 BKN060 BKN069 OVC082 08/M01 Q1028 NOSIG
  • 221430Z AUTO 07009KT 9999 BKN060 OVC070 08/M01 Q1028 NOSIG
  • 221400Z AUTO 07010KT 9999 OVC057 08/M00 Q1027 NOSIG

TAF TAF LBPD
Valide du 22 à 12h jusqu'au 23 à 12h UTC


221100Z 2212/2312 27014KT 9999 SCT050 BKN070
BECMG 2215/2217 VRB04KT



MET'MAP, la Météo Aéronautique d'un coup d'oeil ! - Copyright ORBIFLY Décembre 2007 - Disclaimer

ORBIFLY MET'MAP TEAM :

Programmation & Développement : Alexandra Zaïnal
Sur une idée originale de : Baudouin d'Aumeries
Assistance à la programmation : Marc-Olivier Méhu
Soutien technique & logistique : Manuel Goepfert

Contact : metmap@orbifly.com




SOURCES & CREDITS :

   NOAA